sensor_id;sensor_type;location;lat;lon;timestamp;temperature;humidity
56076;DHT22;41951;49.022;12.066;2023-05-10T00:01:34;15.50;99.90
56076;DHT22;41951;49.022;12.066;2023-05-10T00:03:59;15.50;99.90
56076;DHT22;41951;49.022;12.066;2023-05-10T00:06:25;15.60;99.90
56076;DHT22;41951;49.022;12.066;2023-05-10T00:08:51;15.60;99.90
56076;DHT22;41951;49.022;12.066;2023-05-10T00:11:16;15.60;99.90
56076;DHT22;41951;49.022;12.066;2023-05-10T00:13:42;15.60;99.90
56076;DHT22;41951;49.022;12.066;2023-05-10T00:16:08;15.60;99.90
56076;DHT22;41951;49.022;12.066;2023-05-10T00:18:33;15.60;99.90
56076;DHT22;41951;49.022;12.066;2023-05-10T00:20:59;15.50;99.90
56076;DHT22;41951;49.022;12.066;2023-05-10T00:23:24;15.60;99.90
56076;DHT22;41951;49.022;12.066;2023-05-10T00:25:50;15.60;99.90
56076;DHT22;41951;49.022;12.066;2023-05-10T00:28:15;15.60;99.90
56076;DHT22;41951;49.022;12.066;2023-05-10T00:30:41;15.50;99.90
56076;DHT22;41951;49.022;12.066;2023-05-10T00:33:07;15.50;99.90
56076;DHT22;41951;49.022;12.066;2023-05-10T00:35:32;15.50;99.90
56076;DHT22;41951;49.022;12.066;2023-05-10T00:37:58;15.50;99.90
56076;DHT22;41951;49.022;12.066;2023-05-10T00:40:23;15.50;99.90
56076;DHT22;41951;49.022;12.066;2023-05-10T00:42:49;15.50;99.90
56076;DHT22;41951;49.022;12.066;2023-05-10T00:45:14;15.50;99.90
56076;DHT22;41951;49.022;12.066;2023-05-10T00:47:40;15.40;99.90
56076;DHT22;41951;49.022;12.066;2023-05-10T00:50:06;15.40;99.90
56076;DHT22;41951;49.022;12.066;2023-05-10T00:52:32;15.30;99.90
56076;DHT22;41951;49.022;12.066;2023-05-10T00:54:58;15.30;99.90
56076;DHT22;41951;49.022;12.066;2023-05-10T00:57:24;15.30;99.90
56076;DHT22;41951;49.022;12.066;2023-05-10T00:59:50;15.30;99.90
56076;DHT22;41951;49.022;12.066;2023-05-10T01:02:16;15.40;99.90
56076;DHT22;41951;49.022;12.066;2023-05-10T01:04:43;15.40;99.90
56076;DHT22;41951;49.022;12.066;2023-05-10T01:07:08;15.30;99.90
56076;DHT22;41951;49.022;12.066;2023-05-10T01:09:34;15.40;99.90
56076;DHT22;41951;49.022;12.066;2023-05-10T01:12:00;15.40;99.90
56076;DHT22;41951;49.022;12.066;2023-05-10T01:14:26;15.40;99.90
56076;DHT22;41951;49.022;12.066;2023-05-10T01:16:53;15.30;99.90
56076;DHT22;41951;49.022;12.066;2023-05-10T01:19:22;15.30;99.90
56076;DHT22;41951;49.022;12.066;2023-05-10T01:22:02;15.20;99.90
56076;DHT22;41951;49.022;12.066;2023-05-10T01:30:16;15.20;99.90
56076;DHT22;41951;49.022;12.066;2023-05-10T01:33:10;15.30;99.90
56076;DHT22;41951;49.022;12.066;2023-05-10T01:38:32;15.30;99.90
56076;DHT22;41951;49.022;12.066;2023-05-10T01:43:32;15.20;99.90
56076;DHT22;41951;49.022;12.066;2023-05-10T01:46:07;15.20;99.90
56076;DHT22;41951;49.022;12.066;2023-05-10T01:48:42;15.20;99.90
56076;DHT22;41951;49.022;12.066;2023-05-10T01:51:14;15.20;99.90
56076;DHT22;41951;49.022;12.066;2023-05-10T01:53:42;15.10;99.90
56076;DHT22;41951;49.022;12.066;2023-05-10T01:56:09;15.00;99.90
56076;DHT22;41951;49.022;12.066;2023-05-10T01:58:36;14.90;99.90
56076;DHT22;41951;49.022;12.066;2023-05-10T02:01:05;15.00;99.90
56076;DHT22;41951;49.022;12.066;2023-05-10T02:03:34;15.00;99.90
56076;DHT22;41951;49.022;12.066;2023-05-10T02:06:01;15.00;99.90
56076;DHT22;41951;49.022;12.066;2023-05-10T02:08:29;15.00;99.90
56076;DHT22;41951;49.022;12.066;2023-05-10T02:10:56;15.00;99.90
56076;DHT22;41951;49.022;12.066;2023-05-10T02:13:24;15.00;99.90
56076;DHT22;41951;49.022;12.066;2023-05-10T02:15:51;15.00;99.90
56076;DHT22;41951;49.022;12.066;2023-05-10T02:18:18;15.00;99.90
56076;DHT22;41951;49.022;12.066;2023-05-10T02:20:45;15.00;99.90
56076;DHT22;41951;49.022;12.066;2023-05-10T02:23:12;14.90;99.90
56076;DHT22;41951;49.022;12.066;2023-05-10T02:25:39;14.90;99.90
56076;DHT22;41951;49.022;12.066;2023-05-10T02:28:06;14.90;99.90
56076;DHT22;41951;49.022;12.066;2023-05-10T02:30:34;14.90;99.90
56076;DHT22;41951;49.022;12.066;2023-05-10T02:33:01;14.90;99.90
56076;DHT22;41951;49.022;12.066;2023-05-10T02:35:27;14.70;99.90
56076;DHT22;41951;49.022;12.066;2023-05-10T02:37:54;14.80;99.90
56076;DHT22;41951;49.022;12.066;2023-05-10T02:40:21;14.80;99.90
56076;DHT22;41951;49.022;12.066;2023-05-10T02:42:48;14.80;99.90
56076;DHT22;41951;49.022;12.066;2023-05-10T02:45:24;14.80;99.90
56076;DHT22;41951;49.022;12.066;2023-05-10T02:47:51;14.70;99.90
56076;DHT22;41951;49.022;12.066;2023-05-10T02:50:18;14.60;99.90
56076;DHT22;41951;49.022;12.066;2023-05-10T02:52:49;14.60;99.90
56076;DHT22;41951;49.022;12.066;2023-05-10T02:55:19;14.50;99.90
56076;DHT22;41951;49.022;12.066;2023-05-10T02:57:51;14.50;99.90
56076;DHT22;41951;49.022;12.066;2023-05-10T03:00:17;14.40;99.90
56076;DHT22;41951;49.022;12.066;2023-05-10T03:02:42;14.50;99.90
56076;DHT22;41951;49.022;12.066;2023-05-10T03:05:08;14.50;99.90
56076;DHT22;41951;49.022;12.066;2023-05-10T03:07:34;14.50;99.90
56076;DHT22;41951;49.022;12.066;2023-05-10T03:10:00;14.40;99.90
56076;DHT22;41951;49.022;12.066;2023-05-10T03:20:11;14.40;99.90
56076;DHT22;41951;49.022;12.066;2023-05-10T03:22:45;14.40;99.90
56076;DHT22;41951;49.022;12.066;2023-05-10T03:25:12;14.20;99.90
56076;DHT22;41951;49.022;12.066;2023-05-10T03:27:42;14.20;99.90
56076;DHT22;41951;49.022;12.066;2023-05-10T03:30:12;14.10;99.90
56076;DHT22;41951;49.022;12.066;2023-05-10T03:32:38;14.10;99.90
56076;DHT22;41951;49.022;12.066;2023-05-10T03:35:11;14.10;99.90
56076;DHT22;41951;49.022;12.066;2023-05-10T03:37:37;14.10;99.90
56076;DHT22;41951;49.022;12.066;2023-05-10T03:40:04;14.20;99.90
56076;DHT22;41951;49.022;12.066;2023-05-10T03:42:29;14.10;99.90
56076;DHT22;41951;49.022;12.066;2023-05-10T03:44:55;14.10;99.90
56076;DHT22;41951;49.022;12.066;2023-05-10T03:47:21;14.00;99.90
56076;DHT22;41951;49.022;12.066;2023-05-10T03:49:46;14.00;99.90
56076;DHT22;41951;49.022;12.066;2023-05-10T03:52:12;14.00;99.90
56076;DHT22;41951;49.022;12.066;2023-05-10T03:54:37;13.90;99.90
56076;DHT22;41951;49.022;12.066;2023-05-10T03:57:03;13.90;99.90
56076;DHT22;41951;49.022;12.066;2023-05-10T03:59:29;13.90;99.90
56076;DHT22;41951;49.022;12.066;2023-05-10T04:01:55;14.00;99.90
56076;DHT22;41951;49.022;12.066;2023-05-10T04:04:21;13.90;99.90
56076;DHT22;41951;49.022;12.066;2023-05-10T04:06:47;13.90;99.90
56076;DHT22;41951;49.022;12.066;2023-05-10T04:09:12;13.80;99.90
56076;DHT22;41951;49.022;12.066;2023-05-10T04:11:39;13.80;99.90
56076;DHT22;41951;49.022;12.066;2023-05-10T04:14:04;13.90;99.90
56076;DHT22;41951;49.022;12.066;2023-05-10T04:16:30;13.70;99.90
56076;DHT22;41951;49.022;12.066;2023-05-10T04:18:55;13.70;99.90
56076;DHT22;41951;49.022;12.066;2023-05-10T04:21:21;13.70;99.90
56076;DHT22;41951;49.022;12.066;2023-05-10T04:23:47;13.70;99.90
56076;DHT22;41951;49.022;12.066;2023-05-10T04:26:13;13.70;99.90
56076;DHT22;41951;49.022;12.066;2023-05-10T04:28:38;13.60;99.90
56076;DHT22;41951;49.022;12.066;2023-05-10T04:31:06;13.60;99.90
56076;DHT22;41951;49.022;12.066;2023-05-10T04:33:32;13.60;99.90
56076;DHT22;41951;49.022;12.066;2023-05-10T04:35:58;13.60;99.90
56076;DHT22;41951;49.022;12.066;2023-05-10T04:38:24;13.60;99.90
56076;DHT22;41951;49.022;12.066;2023-05-10T04:40:50;13.60;99.90
56076;DHT22;41951;49.022;12.066;2023-05-10T04:43:15;13.50;99.90
56076;DHT22;41951;49.022;12.066;2023-05-10T04:45:41;13.50;99.90
56076;DHT22;41951;49.022;12.066;2023-05-10T04:48:07;13.50;99.90
56076;DHT22;41951;49.022;12.066;2023-05-10T04:50:32;13.40;99.90
56076;DHT22;41951;49.022;12.066;2023-05-10T04:52:58;13.40;99.90
56076;DHT22;41951;49.022;12.066;2023-05-10T04:55:24;13.40;99.90
56076;DHT22;41951;49.022;12.066;2023-05-10T04:57:53;13.30;99.90
56076;DHT22;41951;49.022;12.066;2023-05-10T05:00:20;13.40;99.90
56076;DHT22;41951;49.022;12.066;2023-05-10T05:02:46;13.30;99.90
56076;DHT22;41951;49.022;12.066;2023-05-10T05:05:12;13.20;99.90
56076;DHT22;41951;49.022;12.066;2023-05-10T05:07:41;13.20;99.90
56076;DHT22;41951;49.022;12.066;2023-05-10T05:10:07;13.10;99.90
56076;DHT22;41951;49.022;12.066;2023-05-10T05:12:35;13.10;99.90
56076;DHT22;41951;49.022;12.066;2023-05-10T05:15:01;13.00;99.90
56076;DHT22;41951;49.022;12.066;2023-05-10T05:17:26;13.00;99.90
56076;DHT22;41951;49.022;12.066;2023-05-10T05:19:52;13.00;99.90
56076;DHT22;41951;49.022;12.066;2023-05-10T05:22:18;13.00;99.90
56076;DHT22;41951;49.022;12.066;2023-05-10T05:24:44;13.00;99.90
56076;DHT22;41951;49.022;12.066;2023-05-10T05:27:10;13.00;99.90
56076;DHT22;41951;49.022;12.066;2023-05-10T05:29:36;13.00;99.90
56076;DHT22;41951;49.022;12.066;2023-05-10T05:32:01;13.00;99.90
56076;DHT22;41951;49.022;12.066;2023-05-10T05:34:27;13.00;99.90
56076;DHT22;41951;49.022;12.066;2023-05-10T05:36:52;13.00;99.90
56076;DHT22;41951;49.022;12.066;2023-05-10T05:39:18;13.00;99.90
56076;DHT22;41951;49.022;12.066;2023-05-10T05:41:43;13.00;99.90
56076;DHT22;41951;49.022;12.066;2023-05-10T05:44:09;13.00;99.90
56076;DHT22;41951;49.022;12.066;2023-05-10T05:46:35;13.00;99.90
56076;DHT22;41951;49.022;12.066;2023-05-10T05:49:00;13.00;99.90
56076;DHT22;41951;49.022;12.066;2023-05-10T05:51:26;13.00;99.90
56076;DHT22;41951;49.022;12.066;2023-05-10T05:53:52;13.00;99.90
56076;DHT22;41951;49.022;12.066;2023-05-10T05:56:18;13.00;99.90
56076;DHT22;41951;49.022;12.066;2023-05-10T05:58:52;13.10;99.90
56076;DHT22;41951;49.022;12.066;2023-05-10T06:01:18;13.00;99.90
56076;DHT22;41951;49.022;12.066;2023-05-10T06:03:43;13.00;99.90
56076;DHT22;41951;49.022;12.066;2023-05-10T06:06:09;13.10;99.90
56076;DHT22;41951;49.022;12.066;2023-05-10T06:08:34;13.10;99.90
56076;DHT22;41951;49.022;12.066;2023-05-10T06:11:00;13.10;99.90
56076;DHT22;41951;49.022;12.066;2023-05-10T06:13:26;13.20;99.90
56076;DHT22;41951;49.022;12.066;2023-05-10T06:15:58;13.20;99.90
56076;DHT22;41951;49.022;12.066;2023-05-10T06:18:24;13.20;99.90
56076;DHT22;41951;49.022;12.066;2023-05-10T06:20:50;13.10;99.90
56076;DHT22;41951;49.022;12.066;2023-05-10T06:23:15;13.20;99.90
56076;DHT22;41951;49.022;12.066;2023-05-10T06:25:41;13.10;99.90
56076;DHT22;41951;49.022;12.066;2023-05-10T06:28:06;13.20;99.90
56076;DHT22;41951;49.022;12.066;2023-05-10T06:30:32;13.20;99.90
56076;DHT22;41951;49.022;12.066;2023-05-10T06:32:57;13.10;99.90
56076;DHT22;41951;49.022;12.066;2023-05-10T06:35:23;13.20;99.90
56076;DHT22;41951;49.022;12.066;2023-05-10T06:37:49;13.30;99.90
56076;DHT22;41951;49.022;12.066;2023-05-10T06:40:15;13.30;99.90
56076;DHT22;41951;49.022;12.066;2023-05-10T06:42:41;13.40;99.90
56076;DHT22;41951;49.022;12.066;2023-05-10T06:45:07;13.40;99.90
56076;DHT22;41951;49.022;12.066;2023-05-10T06:47:33;13.40;99.90
56076;DHT22;41951;49.022;12.066;2023-05-10T06:49:59;13.40;99.90
56076;DHT22;41951;49.022;12.066;2023-05-10T06:52:25;13.40;99.90
56076;DHT22;41951;49.022;12.066;2023-05-10T06:54:50;13.40;99.90
56076;DHT22;41951;49.022;12.066;2023-05-10T06:57:16;13.50;99.90
56076;DHT22;41951;49.022;12.066;2023-05-10T06:59:43;13.60;99.90
56076;DHT22;41951;49.022;12.066;2023-05-10T07:02:08;13.70;99.90
56076;DHT22;41951;49.022;12.066;2023-05-10T07:04:34;13.70;99.90
56076;DHT22;41951;49.022;12.066;2023-05-10T07:07:00;13.70;99.90
56076;DHT22;41951;49.022;12.066;2023-05-10T07:09:25;13.80;99.90
56076;DHT22;41951;49.022;12.066;2023-05-10T07:11:51;13.80;99.90
56076;DHT22;41951;49.022;12.066;2023-05-10T07:14:16;13.90;99.90
56076;DHT22;41951;49.022;12.066;2023-05-10T07:16:42;13.90;99.90
56076;DHT22;41951;49.022;12.066;2023-05-10T07:19:07;13.80;99.90
56076;DHT22;41951;49.022;12.066;2023-05-10T07:21:33;13.70;99.90
56076;DHT22;41951;49.022;12.066;2023-05-10T07:24:00;13.70;99.90
56076;DHT22;41951;49.022;12.066;2023-05-10T07:26:26;13.70;99.90
56076;DHT22;41951;49.022;12.066;2023-05-10T07:28:51;13.70;99.90
56076;DHT22;41951;49.022;12.066;2023-05-10T07:31:17;13.70;99.90
56076;DHT22;41951;49.022;12.066;2023-05-10T07:33:43;13.80;99.90
56076;DHT22;41951;49.022;12.066;2023-05-10T07:36:08;13.80;99.90
56076;DHT22;41951;49.022;12.066;2023-05-10T07:38:34;13.80;99.90
56076;DHT22;41951;49.022;12.066;2023-05-10T07:40:59;13.90;99.90
56076;DHT22;41951;49.022;12.066;2023-05-10T07:43:25;14.00;99.90
56076;DHT22;41951;49.022;12.066;2023-05-10T07:45:50;14.10;99.90
56076;DHT22;41951;49.022;12.066;2023-05-10T07:48:16;14.30;99.90
56076;DHT22;41951;49.022;12.066;2023-05-10T07:50:42;14.40;99.90
56076;DHT22;41951;49.022;12.066;2023-05-10T07:53:08;14.50;99.90
56076;DHT22;41951;49.022;12.066;2023-05-10T07:55:33;14.50;99.90
56076;DHT22;41951;49.022;12.066;2023-05-10T07:57:59;14.60;99.90
56076;DHT22;41951;49.022;12.066;2023-05-10T08:00:26;14.60;99.90
56076;DHT22;41951;49.022;12.066;2023-05-10T08:02:52;14.60;99.90
56076;DHT22;41951;49.022;12.066;2023-05-10T08:05:18;14.70;99.90
56076;DHT22;41951;49.022;12.066;2023-05-10T08:07:44;14.70;99.90
56076;DHT22;41951;49.022;12.066;2023-05-10T08:10:11;14.70;99.90
56076;DHT22;41951;49.022;12.066;2023-05-10T08:12:37;14.70;99.90
56076;DHT22;41951;49.022;12.066;2023-05-10T08:15:03;14.70;99.90
56076;DHT22;41951;49.022;12.066;2023-05-10T08:17:29;14.80;99.90
56076;DHT22;41951;49.022;12.066;2023-05-10T08:19:54;14.90;99.90
56076;DHT22;41951;49.022;12.066;2023-05-10T08:22:20;14.90;99.90
56076;DHT22;41951;49.022;12.066;2023-05-10T08:24:45;15.00;99.90
56076;DHT22;41951;49.022;12.066;2023-05-10T08:27:11;15.10;99.90
56076;DHT22;41951;49.022;12.066;2023-05-10T08:29:37;15.10;99.90
56076;DHT22;41951;49.022;12.066;2023-05-10T08:32:03;15.10;99.90
56076;DHT22;41951;49.022;12.066;2023-05-10T08:34:28;15.10;99.90
56076;DHT22;41951;49.022;12.066;2023-05-10T08:36:56;15.30;99.90
56076;DHT22;41951;49.022;12.066;2023-05-10T08:39:21;15.30;99.90
56076;DHT22;41951;49.022;12.066;2023-05-10T08:41:51;15.30;99.90
56076;DHT22;41951;49.022;12.066;2023-05-10T08:44:19;15.40;99.90
56076;DHT22;41951;49.022;12.066;2023-05-10T08:46:46;15.40;99.90
56076;DHT22;41951;49.022;12.066;2023-05-10T08:49:17;15.30;99.90
56076;DHT22;41951;49.022;12.066;2023-05-10T08:51:48;15.40;99.90
56076;DHT22;41951;49.022;12.066;2023-05-10T08:54:15;15.40;99.90
56076;DHT22;41951;49.022;12.066;2023-05-10T08:56:41;15.50;99.90
56076;DHT22;41951;49.022;12.066;2023-05-10T08:59:07;15.40;99.90
56076;DHT22;41951;49.022;12.066;2023-05-10T09:01:33;15.50;99.90
56076;DHT22;41951;49.022;12.066;2023-05-10T09:04:00;15.40;99.90
56076;DHT22;41951;49.022;12.066;2023-05-10T09:06:26;15.20;99.90
56076;DHT22;41951;49.022;12.066;2023-05-10T09:08:52;15.20;99.90
56076;DHT22;41951;49.022;12.066;2023-05-10T09:11:18;15.10;99.90
56076;DHT22;41951;49.022;12.066;2023-05-10T09:13:47;15.00;99.90
56076;DHT22;41951;49.022;12.066;2023-05-10T09:16:13;14.80;99.90
56076;DHT22;41951;49.022;12.066;2023-05-10T09:18:38;14.70;99.90
56076;DHT22;41951;49.022;12.066;2023-05-10T09:21:04;14.70;99.90
56076;DHT22;41951;49.022;12.066;2023-05-10T09:23:30;14.70;99.90
56076;DHT22;41951;49.022;12.066;2023-05-10T09:26:06;14.80;99.90
56076;DHT22;41951;49.022;12.066;2023-05-10T09:29:08;14.90;99.90
56076;DHT22;41951;49.022;12.066;2023-05-10T09:31:45;14.90;99.90
56076;DHT22;41951;49.022;12.066;2023-05-10T09:34:16;15.10;99.90
56076;DHT22;41951;49.022;12.066;2023-05-10T09:36:56;15.20;99.90
56076;DHT22;41951;49.022;12.066;2023-05-10T09:39:33;15.20;99.90
56076;DHT22;41951;49.022;12.066;2023-05-10T09:42:01;15.30;99.90
56076;DHT22;41951;49.022;12.066;2023-05-10T09:44:29;15.30;99.90
56076;DHT22;41951;49.022;12.066;2023-05-10T09:46:54;15.30;99.90
56076;DHT22;41951;49.022;12.066;2023-05-10T09:49:23;15.30;99.90
56076;DHT22;41951;49.022;12.066;2023-05-10T09:52:00;15.40;99.90
56076;DHT22;41951;49.022;12.066;2023-05-10T09:54:25;15.40;99.90
56076;DHT22;41951;49.022;12.066;2023-05-10T09:56:51;15.50;99.90
56076;DHT22;41951;49.022;12.066;2023-05-10T09:59:16;15.50;99.90
56076;DHT22;41951;49.022;12.066;2023-05-10T10:01:49;15.50;99.90
56076;DHT22;41951;49.022;12.066;2023-05-10T10:04:15;15.60;99.90
56076;DHT22;41951;49.022;12.066;2023-05-10T10:06:41;15.60;99.90
56076;DHT22;41951;49.022;12.066;2023-05-10T10:09:08;15.60;99.90
56076;DHT22;41951;49.022;12.066;2023-05-10T10:11:38;15.70;99.90
56076;DHT22;41951;49.022;12.066;2023-05-10T10:14:04;15.60;99.90
56076;DHT22;41951;49.022;12.066;2023-05-10T10:16:30;15.70;99.90
56076;DHT22;41951;49.022;12.066;2023-05-10T10:18:56;15.90;99.90
56076;DHT22;41951;49.022;12.066;2023-05-10T10:21:23;16.00;99.90
56076;DHT22;41951;49.022;12.066;2023-05-10T10:23:49;16.10;99.90
56076;DHT22;41951;49.022;12.066;2023-05-10T10:26:15;16.30;99.90
56076;DHT22;41951;49.022;12.066;2023-05-10T10:28:47;16.50;99.90
56076;DHT22;41951;49.022;12.066;2023-05-10T10:34:00;16.80;99.90
56076;DHT22;41951;49.022;12.066;2023-05-10T10:36:27;16.90;99.90
56076;DHT22;41951;49.022;12.066;2023-05-10T10:39:00;17.00;99.90
56076;DHT22;41951;49.022;12.066;2023-05-10T10:41:38;17.20;99.90
56076;DHT22;41951;49.022;12.066;2023-05-10T10:49:49;17.70;99.90
56076;DHT22;41951;49.022;12.066;2023-05-10T10:52:26;17.70;99.90
56076;DHT22;41951;49.022;12.066;2023-05-10T10:55:33;17.60;99.90
56076;DHT22;41951;49.022;12.066;2023-05-10T10:57:59;17.50;99.90
56076;DHT22;41951;49.022;12.066;2023-05-10T11:00:36;17.30;99.90
56076;DHT22;41951;49.022;12.066;2023-05-10T11:03:05;17.40;99.90
56076;DHT22;41951;49.022;12.066;2023-05-10T11:08:15;17.60;99.90
56076;DHT22;41951;49.022;12.066;2023-05-10T11:10:50;17.60;99.90
56076;DHT22;41951;49.022;12.066;2023-05-10T11:13:30;17.70;99.90
56076;DHT22;41951;49.022;12.066;2023-05-10T11:15:56;17.80;99.90
56076;DHT22;41951;49.022;12.066;2023-05-10T11:18:26;17.80;99.90
56076;DHT22;41951;49.022;12.066;2023-05-10T11:23:28;18.00;99.90
56076;DHT22;41951;49.022;12.066;2023-05-10T11:25:54;18.10;99.90
56076;DHT22;41951;49.022;12.066;2023-05-10T11:28:20;17.90;99.90
56076;DHT22;41951;49.022;12.066;2023-05-10T11:30:46;17.80;99.90
56076;DHT22;41951;49.022;12.066;2023-05-10T11:33:16;17.80;99.90
56076;DHT22;41951;49.022;12.066;2023-05-10T11:35:42;17.70;99.90
56076;DHT22;41951;49.022;12.066;2023-05-10T11:38:09;17.60;99.90
56076;DHT22;41951;49.022;12.066;2023-05-10T11:40:36;17.60;99.90
56076;DHT22;41951;49.022;12.066;2023-05-10T11:43:02;17.60;99.90
56076;DHT22;41951;49.022;12.066;2023-05-10T11:45:28;17.70;99.90
56076;DHT22;41951;49.022;12.066;2023-05-10T11:47:55;17.70;99.90
56076;DHT22;41951;49.022;12.066;2023-05-10T11:50:22;17.70;99.90
56076;DHT22;41951;49.022;12.066;2023-05-10T11:52:55;17.80;99.90
56076;DHT22;41951;49.022;12.066;2023-05-10T11:55:22;17.90;99.90
56076;DHT22;41951;49.022;12.066;2023-05-10T11:57:52;17.70;99.90
56076;DHT22;41951;49.022;12.066;2023-05-10T12:00:18;17.90;99.90
56076;DHT22;41951;49.022;12.066;2023-05-10T12:02:44;17.90;99.90
56076;DHT22;41951;49.022;12.066;2023-05-10T12:05:09;17.90;99.90
56076;DHT22;41951;49.022;12.066;2023-05-10T12:07:36;18.10;99.90
56076;DHT22;41951;49.022;12.066;2023-05-10T12:10:14;18.10;99.90
56076;DHT22;41951;49.022;12.066;2023-05-10T12:12:44;17.90;99.90
56076;DHT22;41951;49.022;12.066;2023-05-10T12:15:11;18.10;99.90
56076;DHT22;41951;49.022;12.066;2023-05-10T12:17:38;18.20;99.90
56076;DHT22;41951;49.022;12.066;2023-05-10T12:20:18;18.30;99.90
56076;DHT22;41951;49.022;12.066;2023-05-10T12:22:54;18.40;99.90
56076;DHT22;41951;49.022;12.066;2023-05-10T12:25:22;18.40;99.90
56076;DHT22;41951;49.022;12.066;2023-05-10T12:27:51;18.30;99.90
56076;DHT22;41951;49.022;12.066;2023-05-10T12:30:31;18.10;99.90
56076;DHT22;41951;49.022;12.066;2023-05-10T12:33:13;17.90;99.90
56076;DHT22;41951;49.022;12.066;2023-05-10T12:35:51;17.70;99.90
56076;DHT22;41951;49.022;12.066;2023-05-10T12:38:33;17.70;99.90
56076;DHT22;41951;49.022;12.066;2023-05-10T12:41:01;17.50;99.90
56076;DHT22;41951;49.022;12.066;2023-05-10T12:43:27;17.40;99.90
56076;DHT22;41951;49.022;12.066;2023-05-10T12:45:52;17.30;99.90
56076;DHT22;41951;49.022;12.066;2023-05-10T12:48:18;17.20;99.90
56076;DHT22;41951;49.022;12.066;2023-05-10T12:50:44;17.10;99.90
56076;DHT22;41951;49.022;12.066;2023-05-10T12:53:09;17.00;99.90
56076;DHT22;41951;49.022;12.066;2023-05-10T12:55:35;16.90;99.90
56076;DHT22;41951;49.022;12.066;2023-05-10T12:58:01;16.70;99.90
56076;DHT22;41951;49.022;12.066;2023-05-10T13:00:26;16.60;99.90
56076;DHT22;41951;49.022;12.066;2023-05-10T13:02:52;16.40;99.90
56076;DHT22;41951;49.022;12.066;2023-05-10T13:05:18;16.30;99.90
56076;DHT22;41951;49.022;12.066;2023-05-10T13:07:44;16.20;99.90
56076;DHT22;41951;49.022;12.066;2023-05-10T13:10:09;16.10;99.90
56076;DHT22;41951;49.022;12.066;2023-05-10T13:12:35;16.00;99.90
56076;DHT22;41951;49.022;12.066;2023-05-10T13:15:01;15.90;99.90
56076;DHT22;41951;49.022;12.066;2023-05-10T13:17:28;15.80;99.90
56076;DHT22;41951;49.022;12.066;2023-05-10T13:19:54;15.70;99.90
56076;DHT22;41951;49.022;12.066;2023-05-10T13:22:20;15.50;99.90
56076;DHT22;41951;49.022;12.066;2023-05-10T13:24:46;15.50;99.90
56076;DHT22;41951;49.022;12.066;2023-05-10T13:27:11;15.40;99.90
56076;DHT22;41951;49.022;12.066;2023-05-10T13:29:37;15.30;99.90
56076;DHT22;41951;49.022;12.066;2023-05-10T13:32:02;15.30;99.90
56076;DHT22;41951;49.022;12.066;2023-05-10T13:34:28;15.30;99.90
56076;DHT22;41951;49.022;12.066;2023-05-10T13:36:53;15.30;99.90
56076;DHT22;41951;49.022;12.066;2023-05-10T13:39:21;15.40;99.90
56076;DHT22;41951;49.022;12.066;2023-05-10T13:41:46;15.40;99.90
56076;DHT22;41951;49.022;12.066;2023-05-10T13:44:13;15.50;99.90
56076;DHT22;41951;49.022;12.066;2023-05-10T13:46:42;15.60;99.90
56076;DHT22;41951;49.022;12.066;2023-05-10T13:49:09;15.70;99.90
56076;DHT22;41951;49.022;12.066;2023-05-10T13:51:35;15.80;99.90
56076;DHT22;41951;49.022;12.066;2023-05-10T13:54:01;15.70;99.90
56076;DHT22;41951;49.022;12.066;2023-05-10T13:56:27;15.80;99.90
56076;DHT22;41951;49.022;12.066;2023-05-10T13:58:53;15.80;99.90
56076;DHT22;41951;49.022;12.066;2023-05-10T14:01:19;15.80;99.90
56076;DHT22;41951;49.022;12.066;2023-05-10T14:03:44;15.80;99.90
56076;DHT22;41951;49.022;12.066;2023-05-10T14:06:10;15.80;99.90
56076;DHT22;41951;49.022;12.066;2023-05-10T14:08:36;15.90;99.90
56076;DHT22;41951;49.022;12.066;2023-05-10T14:11:01;15.90;99.90
56076;DHT22;41951;49.022;12.066;2023-05-10T14:13:27;15.80;99.90
56076;DHT22;41951;49.022;12.066;2023-05-10T14:15:54;15.80;99.90
56076;DHT22;41951;49.022;12.066;2023-05-10T14:18:20;15.90;99.90
56076;DHT22;41951;49.022;12.066;2023-05-10T14:20:46;15.80;99.90
56076;DHT22;41951;49.022;12.066;2023-05-10T14:23:12;15.80;99.90
56076;DHT22;41951;49.022;12.066;2023-05-10T14:25:41;15.80;99.90
56076;DHT22;41951;49.022;12.066;2023-05-10T14:28:07;15.70;99.90
56076;DHT22;41951;49.022;12.066;2023-05-10T14:30:32;15.80;99.90
56076;DHT22;41951;49.022;12.066;2023-05-10T14:33:00;15.80;99.90
56076;DHT22;41951;49.022;12.066;2023-05-10T14:35:27;15.70;99.90
56076;DHT22;41951;49.022;12.066;2023-05-10T14:37:52;15.70;99.90
56076;DHT22;41951;49.022;12.066;2023-05-10T14:40:18;15.80;99.90
56076;DHT22;41951;49.022;12.066;2023-05-10T14:42:44;15.80;99.90
56076;DHT22;41951;49.022;12.066;2023-05-10T14:45:10;15.60;99.90
56076;DHT22;41951;49.022;12.066;2023-05-10T14:47:36;15.60;99.90
56076;DHT22;41951;49.022;12.066;2023-05-10T14:50:01;15.50;99.90
56076;DHT22;41951;49.022;12.066;2023-05-10T14:52:27;15.50;99.90
56076;DHT22;41951;49.022;12.066;2023-05-10T14:54:53;15.50;99.90
56076;DHT22;41951;49.022;12.066;2023-05-10T14:57:18;15.40;99.90
56076;DHT22;41951;49.022;12.066;2023-05-10T14:59:44;15.40;99.90
56076;DHT22;41951;49.022;12.066;2023-05-10T15:02:10;15.40;99.90
56076;DHT22;41951;49.022;12.066;2023-05-10T15:04:35;15.40;99.90
56076;DHT22;41951;49.022;12.066;2023-05-10T15:07:01;15.30;99.90
56076;DHT22;41951;49.022;12.066;2023-05-10T15:09:26;14.90;99.90
56076;DHT22;41951;49.022;12.066;2023-05-10T15:11:55;15.10;99.90
56076;DHT22;41951;49.022;12.066;2023-05-10T15:14:21;15.10;99.90
56076;DHT22;41951;49.022;12.066;2023-05-10T15:16:47;15.00;99.90
56076;DHT22;41951;49.022;12.066;2023-05-10T15:19:12;15.00;99.90
56076;DHT22;41951;49.022;12.066;2023-05-10T15:21:38;15.00;99.90
56076;DHT22;41951;49.022;12.066;2023-05-10T15:24:05;14.90;99.90
56076;DHT22;41951;49.022;12.066;2023-05-10T15:26:31;14.90;99.90
56076;DHT22;41951;49.022;12.066;2023-05-10T15:28:56;14.90;99.90
56076;DHT22;41951;49.022;12.066;2023-05-10T15:31:22;14.90;99.90
56076;DHT22;41951;49.022;12.066;2023-05-10T15:33:47;15.00;99.90
56076;DHT22;41951;49.022;12.066;2023-05-10T15:36:13;14.90;99.90
56076;DHT22;41951;49.022;12.066;2023-05-10T15:38:38;14.80;99.90
56076;DHT22;41951;49.022;12.066;2023-05-10T15:41:04;14.80;99.90
56076;DHT22;41951;49.022;12.066;2023-05-10T15:43:30;14.60;99.90
56076;DHT22;41951;49.022;12.066;2023-05-10T15:45:56;14.50;99.90
56076;DHT22;41951;49.022;12.066;2023-05-10T15:48:21;14.50;99.90